sensor_id;sensor_type;location;lat;lon;timestamp;P1;durP1;ratioP1;P2;durP2;ratioP2
8526;SDS011;4301;48.362;8.478;2023-03-26T00:00:05;7.70;;;1.70;;
8526;SDS011;4301;48.362;8.478;2023-03-26T00:02:39;7.10;;;2.13;;
8526;SDS011;4301;48.362;8.478;2023-03-26T00:05:07;3.73;;;1.57;;
8526;SDS011;4301;48.362;8.478;2023-03-26T00:07:34;5.60;;;1.80;;
8526;SDS011;4301;48.362;8.478;2023-03-26T00:10:03;3.87;;;1.40;;
8526;SDS011;4301;48.362;8.478;2023-03-26T00:12:30;4.07;;;1.57;;
8526;SDS011;4301;48.362;8.478;2023-03-26T00:14:57;7.57;;;2.43;;
8526;SDS011;4301;48.362;8.478;2023-03-26T00:17:24;5.40;;;1.73;;
8526;SDS011;4301;48.362;8.478;2023-03-26T00:19:52;9.00;;;2.13;;
8526;SDS011;4301;48.362;8.478;2023-03-26T00:22:21;7.53;;;2.00;;
8526;SDS011;4301;48.362;8.478;2023-03-26T00:24:48;5.17;;;1.73;;
8526;SDS011;4301;48.362;8.478;2023-03-26T00:27:16;5.00;;;1.83;;
8526;SDS011;4301;48.362;8.478;2023-03-26T00:29:43;6.27;;;2.30;;
8526;SDS011;4301;48.362;8.478;2023-03-26T00:32:12;4.10;;;1.87;;
8526;SDS011;4301;48.362;8.478;2023-03-26T00:34:39;8.80;;;2.00;;
8526;SDS011;4301;48.362;8.478;2023-03-26T00:37:06;7.13;;;1.97;;
8526;SDS011;4301;48.362;8.478;2023-03-26T00:39:36;4.53;;;2.00;;
8526;SDS011;4301;48.362;8.478;2023-03-26T00:42:03;6.10;;;1.80;;
8526;SDS011;4301;48.362;8.478;2023-03-26T00:44:33;7.60;;;2.10;;
8526;SDS011;4301;48.362;8.478;2023-03-26T00:47:00;10.30;;;2.30;;
8526;SDS011;4301;48.362;8.478;2023-03-26T00:49:27;5.20;;;2.43;;
8526;SDS011;4301;48.362;8.478;2023-03-26T00:51:56;6.80;;;2.33;;
8526;SDS011;4301;48.362;8.478;2023-03-26T00:54:23;7.87;;;1.90;;
8526;SDS011;4301;48.362;8.478;2023-03-26T00:56:49;8.00;;;1.70;;
8526;SDS011;4301;48.362;8.478;2023-03-26T00:59:19;7.17;;;2.00;;
8526;SDS011;4301;48.362;8.478;2023-03-26T01:01:48;5.53;;;1.73;;
8526;SDS011;4301;48.362;8.478;2023-03-26T01:04:20;9.93;;;2.50;;
8526;SDS011;4301;48.362;8.478;2023-03-26T01:06:54;9.93;;;2.07;;
8526;SDS011;4301;48.362;8.478;2023-03-26T01:09:23;7.53;;;2.20;;
8526;SDS011;4301;48.362;8.478;2023-03-26T01:11:57;3.67;;;1.80;;
8526;SDS011;4301;48.362;8.478;2023-03-26T01:14:25;9.00;;;2.23;;
8526;SDS011;4301;48.362;8.478;2023-03-26T01:16:56;6.93;;;2.13;;
8526;SDS011;4301;48.362;8.478;2023-03-26T01:19:27;6.93;;;2.67;;
8526;SDS011;4301;48.362;8.478;2023-03-26T01:22:02;4.27;;;1.97;;
8526;SDS011;4301;48.362;8.478;2023-03-26T01:24:30;5.20;;;2.20;;
8526;SDS011;4301;48.362;8.478;2023-03-26T01:27:06;5.60;;;2.10;;
8526;SDS011;4301;48.362;8.478;2023-03-26T01:29:42;4.87;;;2.30;;
8526;SDS011;4301;48.362;8.478;2023-03-26T01:32:23;3.30;;;1.80;;
8526;SDS011;4301;48.362;8.478;2023-03-26T01:35:05;4.30;;;1.63;;
8526;SDS011;4301;48.362;8.478;2023-03-26T01:37:44;7.93;;;2.37;;
8526;SDS011;4301;48.362;8.478;2023-03-26T01:40:24;7.93;;;1.97;;
8526;SDS011;4301;48.362;8.478;2023-03-26T01:42:55;7.27;;;2.40;;
8526;SDS011;4301;48.362;8.478;2023-03-26T01:45:29;6.73;;;2.83;;
8526;SDS011;4301;48.362;8.478;2023-03-26T01:48:00;8.50;;;2.30;;
8526;SDS011;4301;48.362;8.478;2023-03-26T01:50:27;6.67;;;2.60;;
8526;SDS011;4301;48.362;8.478;2023-03-26T01:52:54;6.30;;;2.30;;
8526;SDS011;4301;48.362;8.478;2023-03-26T01:55:21;7.53;;;2.30;;
8526;SDS011;4301;48.362;8.478;2023-03-26T01:57:54;9.30;;;3.17;;
8526;SDS011;4301;48.362;8.478;2023-03-26T02:00:30;7.13;;;2.50;;
8526;SDS011;4301;48.362;8.478;2023-03-26T02:03:00;8.57;;;2.50;;
8526;SDS011;4301;48.362;8.478;2023-03-26T02:05:43;6.50;;;2.67;;
8526;SDS011;4301;48.362;8.478;2023-03-26T02:08:15;8.07;;;2.30;;
8526;SDS011;4301;48.362;8.478;2023-03-26T02:10:49;5.50;;;2.13;;
8526;SDS011;4301;48.362;8.478;2023-03-26T02:13:20;9.07;;;2.40;;
8526;SDS011;4301;48.362;8.478;2023-03-26T02:15:54;6.83;;;2.37;;
8526;SDS011;4301;48.362;8.478;2023-03-26T02:18:22;9.63;;;2.70;;
8526;SDS011;4301;48.362;8.478;2023-03-26T02:20:50;7.17;;;3.00;;
8526;SDS011;4301;48.362;8.478;2023-03-26T02:23:18;8.33;;;2.47;;
8526;SDS011;4301;48.362;8.478;2023-03-26T02:25:45;6.37;;;2.33;;
8526;SDS011;4301;48.362;8.478;2023-03-26T02:28:13;7.43;;;2.70;;
8526;SDS011;4301;48.362;8.478;2023-03-26T02:30:41;6.30;;;2.43;;
8526;SDS011;4301;48.362;8.478;2023-03-26T02:33:09;7.17;;;2.57;;
8526;SDS011;4301;48.362;8.478;2023-03-26T02:35:39;7.83;;;2.50;;
8526;SDS011;4301;48.362;8.478;2023-03-26T02:38:08;7.80;;;2.30;;
8526;SDS011;4301;48.362;8.478;2023-03-26T02:40:38;5.60;;;2.60;;
8526;SDS011;4301;48.362;8.478;2023-03-26T02:43:05;7.83;;;2.30;;
8526;SDS011;4301;48.362;8.478;2023-03-26T02:45:34;4.90;;;2.23;;
8526;SDS011;4301;48.362;8.478;2023-03-26T02:48:01;6.07;;;2.27;;
8526;SDS011;4301;48.362;8.478;2023-03-26T02:50:27;4.63;;;2.40;;
8526;SDS011;4301;48.362;8.478;2023-03-26T02:52:56;7.87;;;2.67;;
8526;SDS011;4301;48.362;8.478;2023-03-26T02:55:23;4.63;;;2.13;;
8526;SDS011;4301;48.362;8.478;2023-03-26T02:57:51;4.83;;;2.83;;
8526;SDS011;4301;48.362;8.478;2023-03-26T03:00:18;5.40;;;2.77;;
8526;SDS011;4301;48.362;8.478;2023-03-26T03:02:48;8.53;;;3.30;;
8526;SDS011;4301;48.362;8.478;2023-03-26T03:05:16;6.70;;;2.77;;
8526;SDS011;4301;48.362;8.478;2023-03-26T03:07:43;7.30;;;2.50;;
8526;SDS011;4301;48.362;8.478;2023-03-26T03:10:11;7.57;;;2.63;;
8526;SDS011;4301;48.362;8.478;2023-03-26T03:12:39;8.90;;;3.33;;
8526;SDS011;4301;48.362;8.478;2023-03-26T03:15:07;5.00;;;2.60;;
8526;SDS011;4301;48.362;8.478;2023-03-26T03:17:35;8.33;;;3.03;;
8526;SDS011;4301;48.362;8.478;2023-03-26T03:20:03;10.90;;;3.77;;
8526;SDS011;4301;48.362;8.478;2023-03-26T03:22:33;3.87;;;2.83;;
8526;SDS011;4301;48.362;8.478;2023-03-26T03:25:00;8.83;;;3.10;;
8526;SDS011;4301;48.362;8.478;2023-03-26T03:27:27;9.57;;;3.30;;
8526;SDS011;4301;48.362;8.478;2023-03-26T03:29:54;8.87;;;3.33;;
8526;SDS011;4301;48.362;8.478;2023-03-26T03:32:23;5.33;;;2.90;;
8526;SDS011;4301;48.362;8.478;2023-03-26T03:34:50;9.47;;;3.23;;
8526;SDS011;4301;48.362;8.478;2023-03-26T03:37:18;5.87;;;3.13;;
8526;SDS011;4301;48.362;8.478;2023-03-26T03:39:45;4.73;;;2.90;;
8526;SDS011;4301;48.362;8.478;2023-03-26T03:42:12;8.20;;;3.07;;
8526;SDS011;4301;48.362;8.478;2023-03-26T03:44:39;6.10;;;2.70;;
8526;SDS011;4301;48.362;8.478;2023-03-26T03:47:06;7.63;;;3.00;;
8526;SDS011;4301;48.362;8.478;2023-03-26T03:49:37;5.53;;;2.83;;
8526;SDS011;4301;48.362;8.478;2023-03-26T03:52:04;2.63;;;1.97;;
8526;SDS011;4301;48.362;8.478;2023-03-26T03:54:33;3.47;;;2.40;;
8526;SDS011;4301;48.362;8.478;2023-03-26T03:57:00;7.70;;;3.03;;
8526;SDS011;4301;48.362;8.478;2023-03-26T03:59:27;6.33;;;2.60;;
8526;SDS011;4301;48.362;8.478;2023-03-26T04:01:54;4.87;;;2.23;;
8526;SDS011;4301;48.362;8.478;2023-03-26T04:04:21;7.13;;;2.60;;
8526;SDS011;4301;48.362;8.478;2023-03-26T04:06:49;4.53;;;2.30;;
8526;SDS011;4301;48.362;8.478;2023-03-26T04:09:16;4.90;;;2.37;;
8526;SDS011;4301;48.362;8.478;2023-03-26T04:11:44;6.83;;;2.60;;
8526;SDS011;4301;48.362;8.478;2023-03-26T04:14:11;8.00;;;2.80;;
8526;SDS011;4301;48.362;8.478;2023-03-26T04:16:38;7.87;;;2.87;;
8526;SDS011;4301;48.362;8.478;2023-03-26T04:19:05;4.07;;;2.57;;
8526;SDS011;4301;48.362;8.478;2023-03-26T04:21:32;4.73;;;2.70;;
8526;SDS011;4301;48.362;8.478;2023-03-26T04:24:02;8.97;;;3.10;;
8526;SDS011;4301;48.362;8.478;2023-03-26T04:26:29;4.77;;;2.60;;
8526;SDS011;4301;48.362;8.478;2023-03-26T04:28:59;7.43;;;2.73;;
8526;SDS011;4301;48.362;8.478;2023-03-26T04:31:28;6.37;;;2.70;;
8526;SDS011;4301;48.362;8.478;2023-03-26T04:34:04;6.83;;;3.03;;
8526;SDS011;4301;48.362;8.478;2023-03-26T04:36:37;9.60;;;3.33;;
8526;SDS011;4301;48.362;8.478;2023-03-26T04:39:08;5.93;;;2.60;;
8526;SDS011;4301;48.362;8.478;2023-03-26T04:41:37;4.80;;;2.77;;
8526;SDS011;4301;48.362;8.478;2023-03-26T04:44:05;7.63;;;2.80;;
8526;SDS011;4301;48.362;8.478;2023-03-26T04:46:32;8.40;;;2.47;;
8526;SDS011;4301;48.362;8.478;2023-03-26T04:48:59;6.73;;;2.70;;
8526;SDS011;4301;48.362;8.478;2023-03-26T04:51:29;8.23;;;2.70;;
8526;SDS011;4301;48.362;8.478;2023-03-26T04:54:02;11.80;;;3.40;;
8526;SDS011;4301;48.362;8.478;2023-03-26T04:56:33;9.43;;;2.60;;
8526;SDS011;4301;48.362;8.478;2023-03-26T04:59:08;8.37;;;3.27;;
8526;SDS011;4301;48.362;8.478;2023-03-26T05:01:39;6.80;;;2.80;;
8526;SDS011;4301;48.362;8.478;2023-03-26T05:04:06;6.27;;;2.50;;
8526;SDS011;4301;48.362;8.478;2023-03-26T05:06:33;4.87;;;2.80;;
8526;SDS011;4301;48.362;8.478;2023-03-26T05:09:02;7.57;;;3.70;;
8526;SDS011;4301;48.362;8.478;2023-03-26T05:11:29;10.00;;;5.20;;
8526;SDS011;4301;48.362;8.478;2023-03-26T05:13:56;6.83;;;2.60;;
8526;SDS011;4301;48.362;8.478;2023-03-26T05:16:24;7.43;;;3.63;;
8526;SDS011;4301;48.362;8.478;2023-03-26T05:18:52;4.90;;;3.30;;
8526;SDS011;4301;48.362;8.478;2023-03-26T05:21:19;8.27;;;2.93;;
8526;SDS011;4301;48.362;8.478;2023-03-26T05:23:46;6.63;;;2.40;;
8526;SDS011;4301;48.362;8.478;2023-03-26T05:26:13;6.97;;;2.70;;
8526;SDS011;4301;48.362;8.478;2023-03-26T05:28:40;9.33;;;2.40;;
8526;SDS011;4301;48.362;8.478;2023-03-26T05:31:07;7.07;;;2.73;;
8526;SDS011;4301;48.362;8.478;2023-03-26T05:33:36;7.40;;;2.30;;
8526;SDS011;4301;48.362;8.478;2023-03-26T05:36:03;7.27;;;2.43;;
8526;SDS011;4301;48.362;8.478;2023-03-26T05:38:33;8.37;;;2.63;;
8526;SDS011;4301;48.362;8.478;2023-03-26T05:41:02;5.10;;;2.30;;
8526;SDS011;4301;48.362;8.478;2023-03-26T05:43:30;9.90;;;2.47;;
8526;SDS011;4301;48.362;8.478;2023-03-26T05:45:58;7.27;;;2.27;;
8526;SDS011;4301;48.362;8.478;2023-03-26T05:48:25;5.53;;;1.87;;
8526;SDS011;4301;48.362;8.478;2023-03-26T05:50:55;9.20;;;2.20;;
8526;SDS011;4301;48.362;8.478;2023-03-26T05:53:24;6.20;;;2.40;;
8526;SDS011;4301;48.362;8.478;2023-03-26T05:55:52;5.17;;;2.00;;
8526;SDS011;4301;48.362;8.478;2023-03-26T05:58:22;7.00;;;2.10;;
8526;SDS011;4301;48.362;8.478;2023-03-26T06:00:54;11.67;;;2.13;;
8526;SDS011;4301;48.362;8.478;2023-03-26T06:03:23;8.10;;;2.03;;
8526;SDS011;4301;48.362;8.478;2023-03-26T06:05:50;7.07;;;1.97;;
8526;SDS011;4301;48.362;8.478;2023-03-26T06:08:19;10.57;;;2.67;;
8526;SDS011;4301;48.362;8.478;2023-03-26T06:10:46;5.13;;;2.17;;
8526;SDS011;4301;48.362;8.478;2023-03-26T06:13:13;7.60;;;2.43;;
8526;SDS011;4301;48.362;8.478;2023-03-26T06:15:41;8.83;;;2.40;;
8526;SDS011;4301;48.362;8.478;2023-03-26T06:18:08;6.23;;;2.40;;
8526;SDS011;4301;48.362;8.478;2023-03-26T06:20:35;5.50;;;2.40;;
8526;SDS011;4301;48.362;8.478;2023-03-26T06:23:02;9.57;;;2.77;;
8526;SDS011;4301;48.362;8.478;2023-03-26T06:25:31;8.23;;;2.57;;
8526;SDS011;4301;48.362;8.478;2023-03-26T06:27:58;10.47;;;2.70;;
8526;SDS011;4301;48.362;8.478;2023-03-26T06:30:25;10.77;;;3.30;;
8526;SDS011;4301;48.362;8.478;2023-03-26T06:32:52;7.10;;;2.90;;
8526;SDS011;4301;48.362;8.478;2023-03-26T06:35:19;5.57;;;2.60;;
8526;SDS011;4301;48.362;8.478;2023-03-26T06:37:46;9.13;;;2.60;;
8526;SDS011;4301;48.362;8.478;2023-03-26T06:40:13;7.70;;;2.60;;
8526;SDS011;4301;48.362;8.478;2023-03-26T06:42:42;9.17;;;2.63;;
8526;SDS011;4301;48.362;8.478;2023-03-26T06:45:09;10.33;;;2.90;;
8526;SDS011;4301;48.362;8.478;2023-03-26T06:47:36;9.07;;;2.80;;
8526;SDS011;4301;48.362;8.478;2023-03-26T06:50:03;9.50;;;3.17;;
8526;SDS011;4301;48.362;8.478;2023-03-26T06:52:31;6.83;;;3.30;;
8526;SDS011;4301;48.362;8.478;2023-03-26T06:54:59;10.10;;;3.47;;
8526;SDS011;4301;48.362;8.478;2023-03-26T06:57:26;11.13;;;3.27;;
8526;SDS011;4301;48.362;8.478;2023-03-26T06:59:54;8.03;;;3.00;;
8526;SDS011;4301;48.362;8.478;2023-03-26T07:02:21;9.63;;;3.37;;
8526;SDS011;4301;48.362;8.478;2023-03-26T07:04:48;8.37;;;3.10;;
8526;SDS011;4301;48.362;8.478;2023-03-26T07:07:15;8.10;;;2.90;;
8526;SDS011;4301;48.362;8.478;2023-03-26T07:09:45;8.20;;;2.90;;
8526;SDS011;4301;48.362;8.478;2023-03-26T07:12:13;7.20;;;2.47;;
8526;SDS011;4301;48.362;8.478;2023-03-26T07:14:40;6.50;;;2.80;;
8526;SDS011;4301;48.362;8.478;2023-03-26T07:17:08;8.83;;;2.97;;
8526;SDS011;4301;48.362;8.478;2023-03-26T07:19:35;11.07;;;3.13;;
8526;SDS011;4301;48.362;8.478;2023-03-26T07:22:03;5.97;;;2.53;;
8526;SDS011;4301;48.362;8.478;2023-03-26T07:24:30;4.23;;;2.63;;
8526;SDS011;4301;48.362;8.478;2023-03-26T07:26:59;4.80;;;2.80;;
8526;SDS011;4301;48.362;8.478;2023-03-26T07:29:32;6.80;;;2.57;;
8526;SDS011;4301;48.362;8.478;2023-03-26T07:32:06;8.03;;;2.97;;
8526;SDS011;4301;48.362;8.478;2023-03-26T07:34:44;4.97;;;2.73;;
8526;SDS011;4301;48.362;8.478;2023-03-26T07:37:19;4.97;;;2.13;;
8526;SDS011;4301;48.362;8.478;2023-03-26T07:39:57;8.17;;;2.60;;
8526;SDS011;4301;48.362;8.478;2023-03-26T07:42:34;5.33;;;2.77;;
8526;SDS011;4301;48.362;8.478;2023-03-26T07:45:15;5.73;;;2.77;;
8526;SDS011;4301;48.362;8.478;2023-03-26T07:47:49;7.70;;;3.00;;
8526;SDS011;4301;48.362;8.478;2023-03-26T07:50:19;7.57;;;2.77;;
8526;SDS011;4301;48.362;8.478;2023-03-26T07:52:48;4.93;;;2.70;;
8526;SDS011;4301;48.362;8.478;2023-03-26T07:55:15;6.07;;;2.60;;
8526;SDS011;4301;48.362;8.478;2023-03-26T07:57:46;3.97;;;2.97;;
8526;SDS011;4301;48.362;8.478;2023-03-26T08:00:25;8.27;;;3.60;;
8526;SDS011;4301;48.362;8.478;2023-03-26T08:03:07;4.27;;;3.37;;
8526;SDS011;4301;48.362;8.478;2023-03-26T08:05:46;6.63;;;4.50;;
8526;SDS011;4301;48.362;8.478;2023-03-26T08:08:20;9.03;;;3.80;;
8526;SDS011;4301;48.362;8.478;2023-03-26T08:10:59;7.53;;;4.00;;
8526;SDS011;4301;48.362;8.478;2023-03-26T08:13:36;10.60;;;5.30;;
8526;SDS011;4301;48.362;8.478;2023-03-26T08:16:13;5.77;;;4.43;;
8526;SDS011;4301;48.362;8.478;2023-03-26T08:18:48;6.90;;;3.23;;
8526;SDS011;4301;48.362;8.478;2023-03-26T08:21:22;6.03;;;2.77;;
8526;SDS011;4301;48.362;8.478;2023-03-26T08:23:57;4.10;;;3.10;;
8526;SDS011;4301;48.362;8.478;2023-03-26T08:26:32;3.73;;;2.37;;
8526;SDS011;4301;48.362;8.478;2023-03-26T08:29:08;5.50;;;2.17;;
8526;SDS011;4301;48.362;8.478;2023-03-26T08:31:43;4.53;;;2.10;;
8526;SDS011;4301;48.362;8.478;2023-03-26T08:34:15;5.63;;;2.00;;
8526;SDS011;4301;48.362;8.478;2023-03-26T08:36:42;4.10;;;2.00;;
8526;SDS011;4301;48.362;8.478;2023-03-26T08:39:10;3.03;;;1.90;;
8526;SDS011;4301;48.362;8.478;2023-03-26T08:47:52;2.20;;;1.50;;
8526;SDS011;4301;48.362;8.478;2023-03-26T08:50:46;5.40;;;1.80;;
8526;SDS011;4301;48.362;8.478;2023-03-26T08:53:46;1.83;;;1.30;;
8526;SDS011;4301;48.362;8.478;2023-03-26T08:56:28;2.53;;;1.43;;
8526;SDS011;4301;48.362;8.478;2023-03-26T08:59:17;2.23;;;1.30;;
8526;SDS011;4301;48.362;8.478;2023-03-26T09:08:28;1.93;;;1.40;;
8526;SDS011;4301;48.362;8.478;2023-03-26T09:11:18;3.17;;;1.50;;
8526;SDS011;4301;48.362;8.478;2023-03-26T09:14:22;1.67;;;1.20;;
8526;SDS011;4301;48.362;8.478;2023-03-26T09:17:27;2.20;;;1.27;;
8526;SDS011;4301;48.362;8.478;2023-03-26T09:26:30;1.03;;;1.03;;
8526;SDS011;4301;48.362;8.478;2023-03-26T09:32:23;1.70;;;1.23;;
8526;SDS011;4301;48.362;8.478;2023-03-26T09:35:17;1.73;;;1.40;;
8526;SDS011;4301;48.362;8.478;2023-03-26T09:38:09;1.00;;;0.87;;
8526;SDS011;4301;48.362;8.478;2023-03-26T09:40:42;1.47;;;0.80;;
8526;SDS011;4301;48.362;8.478;2023-03-26T09:43:33;1.17;;;0.77;;
8526;SDS011;4301;48.362;8.478;2023-03-26T09:46:13;0.80;;;0.80;;
8526;SDS011;4301;48.362;8.478;2023-03-26T09:48:55;1.33;;;0.73;;
8526;SDS011;4301;48.362;8.478;2023-03-26T09:51:54;1.77;;;1.20;;
8526;SDS011;4301;48.362;8.478;2023-03-26T09:57:58;1.87;;;1.50;;
8526;SDS011;4301;48.362;8.478;2023-03-26T10:00:43;2.10;;;1.50;;
8526;SDS011;4301;48.362;8.478;2023-03-26T10:03:27;2.33;;;1.33;;
8526;SDS011;4301;48.362;8.478;2023-03-26T10:12:09;1.53;;;1.10;;
8526;SDS011;4301;48.362;8.478;2023-03-26T10:14:45;2.53;;;1.80;;
8526;SDS011;4301;48.362;8.478;2023-03-26T10:17:25;1.10;;;1.00;;
8526;SDS011;4301;48.362;8.478;2023-03-26T10:20:05;1.90;;;1.00;;
8526;SDS011;4301;48.362;8.478;2023-03-26T10:22:49;1.03;;;1.00;;
8526;SDS011;4301;48.362;8.478;2023-03-26T10:25:30;0.90;;;0.90;;
8526;SDS011;4301;48.362;8.478;2023-03-26T10:28:09;1.20;;;1.10;;
8526;SDS011;4301;48.362;8.478;2023-03-26T10:31:05;0.90;;;0.80;;
8526;SDS011;4301;48.362;8.478;2023-03-26T10:33:55;1.00;;;1.00;;
8526;SDS011;4301;48.362;8.478;2023-03-26T10:36:30;0.70;;;0.70;;
8526;SDS011;4301;48.362;8.478;2023-03-26T10:39:07;1.40;;;0.80;;
8526;SDS011;4301;48.362;8.478;2023-03-26T10:41:57;0.80;;;0.80;;
8526;SDS011;4301;48.362;8.478;2023-03-26T10:44:38;1.37;;;1.17;;
8526;SDS011;4301;48.362;8.478;2023-03-26T10:50:26;1.23;;;0.90;;
8526;SDS011;4301;48.362;8.478;2023-03-26T10:53:01;1.30;;;1.20;;
8526;SDS011;4301;48.362;8.478;2023-03-26T10:55:35;1.73;;;1.30;;
8526;SDS011;4301;48.362;8.478;2023-03-26T10:58:06;2.77;;;1.10;;
8526;SDS011;4301;48.362;8.478;2023-03-26T11:00:43;0.90;;;0.87;;
8526;SDS011;4301;48.362;8.478;2023-03-26T11:03:19;1.97;;;1.13;;
8526;SDS011;4301;48.362;8.478;2023-03-26T11:06:05;1.53;;;1.00;;
8526;SDS011;4301;48.362;8.478;2023-03-26T11:08:40;2.53;;;0.83;;
8526;SDS011;4301;48.362;8.478;2023-03-26T11:11:15;0.80;;;0.80;;
8526;SDS011;4301;48.362;8.478;2023-03-26T11:13:52;1.67;;;1.10;;
8526;SDS011;4301;48.362;8.478;2023-03-26T11:16:27;2.37;;;0.90;;
8526;SDS011;4301;48.362;8.478;2023-03-26T11:19:05;1.00;;;0.90;;
8526;SDS011;4301;48.362;8.478;2023-03-26T11:21:41;1.87;;;1.20;;
8526;SDS011;4301;48.362;8.478;2023-03-26T11:24:29;1.65;;;1.20;;
8526;SDS011;4301;48.362;8.478;2023-03-26T11:27:13;0.90;;;0.90;;
8526;SDS011;4301;48.362;8.478;2023-03-26T11:29:48;1.00;;;0.90;;
8526;SDS011;4301;48.362;8.478;2023-03-26T11:32:22;2.17;;;1.13;;
8526;SDS011;4301;48.362;8.478;2023-03-26T11:34:55;1.23;;;1.10;;
8526;SDS011;4301;48.362;8.478;2023-03-26T11:37:30;1.00;;;1.00;;
8526;SDS011;4301;48.362;8.478;2023-03-26T11:40:00;3.45;;;1.02;;
8526;SDS011;4301;48.362;8.478;2023-03-26T11:42:32;1.17;;;1.08;;
8526;SDS011;4301;48.362;8.478;2023-03-26T11:45:02;1.85;;;0.90;;
8526;SDS011;4301;48.362;8.478;2023-03-26T11:47:32;2.53;;;1.17;;
8526;SDS011;4301;48.362;8.478;2023-03-26T11:50:04;1.13;;;1.00;;
8526;SDS011;4301;48.362;8.478;2023-03-26T11:52:37;2.63;;;0.93;;
8526;SDS011;4301;48.362;8.478;2023-03-26T11:55:04;2.70;;;1.20;;
8526;SDS011;4301;48.362;8.478;2023-03-26T11:57:32;0.98;;;0.93;;
8526;SDS011;4301;48.362;8.478;2023-03-26T12:00:03;1.25;;;1.08;;
8526;SDS011;4301;48.362;8.478;2023-03-26T12:02:39;2.53;;;1.23;;
8526;SDS011;4301;48.362;8.478;2023-03-26T12:05:10;3.28;;;2.00;;
8526;SDS011;4301;48.362;8.478;2023-03-26T12:07:45;3.83;;;1.20;;
8526;SDS011;4301;48.362;8.478;2023-03-26T12:13:12;2.10;;;1.00;;
8526;SDS011;4301;48.362;8.478;2023-03-26T12:15:55;2.67;;;1.20;;
8526;SDS011;4301;48.362;8.478;2023-03-26T12:18:24;1.70;;;1.17;;
8526;SDS011;4301;48.362;8.478;2023-03-26T12:21:01;1.58;;;1.20;;
8526;SDS011;4301;48.362;8.478;2023-03-26T12:23:36;2.03;;;1.40;;
8526;SDS011;4301;48.362;8.478;2023-03-26T12:26:12;1.35;;;1.00;;
8526;SDS011;4301;48.362;8.478;2023-03-26T12:28:45;2.00;;;1.05;;
8526;SDS011;4301;48.362;8.478;2023-03-26T12:31:13;2.88;;;1.20;;
8526;SDS011;4301;48.362;8.478;2023-03-26T12:33:43;2.17;;;1.07;;
8526;SDS011;4301;48.362;8.478;2023-03-26T12:38:58;2.93;;;1.20;;
8526;SDS011;4301;48.362;8.478;2023-03-26T12:41:32;2.43;;;1.13;;
8526;SDS011;4301;48.362;8.478;2023-03-26T12:44:13;1.83;;;0.97;;
8526;SDS011;4301;48.362;8.478;2023-03-26T12:46:47;1.70;;;1.27;;
8526;SDS011;4301;48.362;8.478;2023-03-26T12:49:18;1.90;;;1.20;;
8526;SDS011;4301;48.362;8.478;2023-03-26T12:51:47;1.70;;;1.00;;
8526;SDS011;4301;48.362;8.478;2023-03-26T12:54:26;1.13;;;1.03;;
8526;SDS011;4301;48.362;8.478;2023-03-26T12:57:09;2.90;;;1.40;;
8526;SDS011;4301;48.362;8.478;2023-03-26T12:59:48;1.13;;;1.03;;
8526;SDS011;4301;48.362;8.478;2023-03-26T13:02:40;1.20;;;1.03;;
8526;SDS011;4301;48.362;8.478;2023-03-26T13:05:31;2.90;;;1.10;;
8526;SDS011;4301;48.362;8.478;2023-03-26T13:08:08;2.30;;;1.00;;
8526;SDS011;4301;48.362;8.478;2023-03-26T13:10:55;1.53;;;0.90;;
8526;SDS011;4301;48.362;8.478;2023-03-26T13:13:48;1.20;;;0.90;;
8526;SDS011;4301;48.362;8.478;2023-03-26T13:16:23;1.60;;;0.93;;
8526;SDS011;4301;48.362;8.478;2023-03-26T13:18:58;2.20;;;1.07;;
8526;SDS011;4301;48.362;8.478;2023-03-26T13:21:33;1.57;;;0.90;;
8526;SDS011;4301;48.362;8.478;2023-03-26T13:24:12;3.93;;;1.23;;
8526;SDS011;4301;48.362;8.478;2023-03-26T13:26:51;1.43;;;1.00;;
8526;SDS011;4301;48.362;8.478;2023-03-26T13:29:31;1.53;;;1.20;;
8526;SDS011;4301;48.362;8.478;2023-03-26T13:32:07;3.73;;;1.30;;
8526;SDS011;4301;48.362;8.478;2023-03-26T13:34:45;2.60;;;1.30;;
8526;SDS011;4301;48.362;8.478;2023-03-26T13:37:22;2.20;;;1.17;;
8526;SDS011;4301;48.362;8.478;2023-03-26T13:39:56;1.67;;;1.10;;
8526;SDS011;4301;48.362;8.478;2023-03-26T13:42:36;1.67;;;0.90;;
8526;SDS011;4301;48.362;8.478;2023-03-26T13:45:13;1.30;;;0.90;;
8526;SDS011;4301;48.362;8.478;2023-03-26T13:47:53;2.23;;;0.90;;
8526;SDS011;4301;48.362;8.478;2023-03-26T13:50:22;1.73;;;0.87;;
8526;SDS011;4301;48.362;8.478;2023-03-26T13:52:53;4.47;;;0.93;;
8526;SDS011;4301;48.362;8.478;2023-03-26T13:55:26;2.03;;;0.80;;
8526;SDS011;4301;48.362;8.478;2023-03-26T13:57:59;3.63;;;1.00;;
8526;SDS011;4301;48.362;8.478;2023-03-26T14:00:36;3.00;;;1.00;;
8526;SDS011;4301;48.362;8.478;2023-03-26T14:03:20;1.80;;;0.90;;
8526;SDS011;4301;48.362;8.478;2023-03-26T14:05:53;2.90;;;1.00;;
8526;SDS011;4301;48.362;8.478;2023-03-26T14:08:24;3.00;;;1.13;;
8526;SDS011;4301;48.362;8.478;2023-03-26T14:10:58;2.10;;;0.97;;
8526;SDS011;4301;48.362;8.478;2023-03-26T14:13:37;4.23;;;1.17;;
8526;SDS011;4301;48.362;8.478;2023-03-26T14:16:09;2.67;;;0.80;;
8526;SDS011;4301;48.362;8.478;2023-03-26T14:18:41;5.00;;;1.10;;
8526;SDS011;4301;48.362;8.478;2023-03-26T14:21:17;1.30;;;0.80;;
8526;SDS011;4301;48.362;8.478;2023-03-26T14:24:16;1.63;;;1.00;;
8526;SDS011;4301;48.362;8.478;2023-03-26T14:26:58;2.87;;;1.20;;
8526;SDS011;4301;48.362;8.478;2023-03-26T14:32:46;3.33;;;0.93;;
8526;SDS011;4301;48.362;8.478;2023-03-26T14:35:24;3.53;;;1.43;;
8526;SDS011;4301;48.362;8.478;2023-03-26T14:38:06;3.17;;;1.20;;
8526;SDS011;4301;48.362;8.478;2023-03-26T14:40:51;3.17;;;1.20;;
8526;SDS011;4301;48.362;8.478;2023-03-26T14:46:26;2.43;;;0.93;;
8526;SDS011;4301;48.362;8.478;2023-03-26T14:52:08;2.23;;;1.30;;
8526;SDS011;4301;48.362;8.478;2023-03-26T14:54:39;2.30;;;0.80;;
8526;SDS011;4301;48.362;8.478;2023-03-26T15:00:42;1.03;;;0.70;;
8526;SDS011;4301;48.362;8.478;2023-03-26T15:03:42;1.13;;;0.57;;
8526;SDS011;4301;48.362;8.478;2023-03-26T15:06:53;1.60;;;0.60;;
8526;SDS011;4301;48.362;8.478;2023-03-26T15:12:59;0.50;;;0.50;;
8526;SDS011;4301;48.362;8.478;2023-03-26T15:18:39;0.60;;;0.53;;
8526;SDS011;4301;48.362;8.478;2023-03-26T15:24:50;1.00;;;1.00;;
8526;SDS011;4301;48.362;8.478;2023-03-26T15:27:44;0.60;;;0.60;;
8526;SDS011;4301;48.362;8.478;2023-03-26T15:30:41;0.63;;;0.63;;
8526;SDS011;4301;48.362;8.478;2023-03-26T15:39:37;0.20;;;0.20;;
8526;SDS011;4301;48.362;8.478;2023-03-26T15:42:20;0.60;;;0.60;;
8526;SDS011;4301;48.362;8.478;2023-03-26T15:44:57;0.50;;;0.50;;
8526;SDS011;4301;48.362;8.478;2023-03-26T15:50:46;0.80;;;0.50;;
8526;SDS011;4301;48.362;8.478;2023-03-26T15:53:26;2.27;;;0.67;;
8526;SDS011;4301;48.362;8.478;2023-03-26T15:56:06;0.87;;;0.70;;
8526;SDS011;4301;48.362;8.478;2023-03-26T15:58:41;0.50;;;0.50;;
8526;SDS011;4301;48.362;8.478;2023-03-26T16:01:15;0.60;;;0.60;;
8526;SDS011;4301;48.362;8.478;2023-03-26T16:04:00;0.40;;;0.40;;
8526;SDS011;4301;48.362;8.478;2023-03-26T16:06:40;0.60;;;0.60;;
8526;SDS011;4301;48.362;8.478;2023-03-26T16:09:26;3.00;;;2.67;;
8526;SDS011;4301;48.362;8.478;2023-03-26T16:12:03;1.37;;;0.70;;
8526;SDS011;4301;48.362;8.478;2023-03-26T16:24:22;1.43;;;0.80;;
8526;SDS011;4301;48.362;8.478;2023-03-26T16:26:58;0.67;;;0.67;;
8526;SDS011;4301;48.362;8.478;2023-03-26T16:32:51;1.20;;;1.17;;
8526;SDS011;4301;48.362;8.478;2023-03-26T16:38:47;1.13;;;0.70;;
8526;SDS011;4301;48.362;8.478;2023-03-26T16:41:19;1.00;;;0.83;;
8526;SDS011;4301;48.362;8.478;2023-03-26T16:44:02;0.67;;;0.67;;
8526;SDS011;4301;48.362;8.478;2023-03-26T16:46:39;0.60;;;0.60;;
8526;SDS011;4301;48.362;8.478;2023-03-26T16:49:14;0.60;;;0.60;;
8526;SDS011;4301;48.362;8.478;2023-03-26T16:54:42;0.67;;;0.67;;
8526;SDS011;4301;48.362;8.478;2023-03-26T16:57:16;1.17;;;0.70;;
8526;SDS011;4301;48.362;8.478;2023-03-26T16:59:56;1.27;;;0.83;;
8526;SDS011;4301;48.362;8.478;2023-03-26T17:02:51;0.80;;;0.80;;
8526;SDS011;4301;48.362;8.478;2023-03-26T17:05:24;1.00;;;0.90;;
8526;SDS011;4301;48.362;8.478;2023-03-26T17:08:02;2.07;;;1.87;;
8526;SDS011;4301;48.362;8.478;2023-03-26T17:10:37;1.30;;;1.30;;
8526;SDS011;4301;48.362;8.478;2023-03-26T17:13:13;0.67;;;0.67;;
8526;SDS011;4301;48.362;8.478;2023-03-26T17:15:52;0.70;;;0.70;;
8526;SDS011;4301;48.362;8.478;2023-03-26T17:18:32;0.60;;;0.60;;
8526;SDS011;4301;48.362;8.478;2023-03-26T17:21:08;5.13;;;4.73;;
8526;SDS011;4301;48.362;8.478;2023-03-26T17:26:30;0.67;;;0.67;;
8526;SDS011;4301;48.362;8.478;2023-03-26T17:29:20;0.83;;;0.83;;